map of KPOV home
Great Circle Mapper logo
KPOV - Airport
Location
City:  Ravenna, Ohio, United States
Name:Portage County Airport
ICAO:KPOV
FAA:POV

Details
Type:Airport (Airfield)
Use:Public/Civil
Latitude:4112'37"N (41.210182)
Longitude:8115'06"W (-81.251624)
Datum:WGS 1984
Elevation:1198 ft (365 m)
Runways:1
Longest:3499 × 75 ft (1066 × 23 m), paved

Time
Time Zone:UTC-5 (DST-4)
Local Time:

Weather
METAR:KPOV 161535Z AUTO 06008KT 10SM CLR 01/M08 A3047 RMK AO2 T00061078

Related Locations
Nearby:
Farthest:MGV: 11414 mi / 18369 km
Margaret River, WA, AU

Find:

   beyond  
but within

Other Information
Maps:
NOTAMs:
Links:
Sources:

  
flag of United States
flag of Ohio
  

Sectional Chart

Flight Planning
at skyvector.com

Satellite Image

Google Maps Satellite View

 

Copyright © 2004-2014 Karl L. Swartz. All rights reserved.
The Great Circle Mapper name and logo are trademarks of the Great Circle Mapper.
All other trademarks mentioned herein belong to their respective owners.
Please see credits for attibutions and further copyright information.

  Follow gcmap on Facebook Follow gcmap on Twitter

hCard Microformat

Geo Microformat